sensor_id;sensor_type;location;lat;lon;timestamp;P1;durP1;ratioP1;P2;durP2;ratioP2
20159;SDS011;50187;50.492;12.134;2023-05-07T00:00:10;4.40;;;4.00;;
20159;SDS011;50187;50.492;12.134;2023-05-07T00:02:37;4.23;;;3.93;;
20159;SDS011;50187;50.492;12.134;2023-05-07T00:05:04;4.90;;;4.50;;
20159;SDS011;50187;50.492;12.134;2023-05-07T00:07:31;4.87;;;4.47;;
20159;SDS011;50187;50.492;12.134;2023-05-07T00:09:58;4.87;;;4.37;;
20159;SDS011;50187;50.492;12.134;2023-05-07T00:12:24;4.50;;;4.13;;
20159;SDS011;50187;50.492;12.134;2023-05-07T00:14:51;4.60;;;4.20;;
20159;SDS011;50187;50.492;12.134;2023-05-07T00:17:18;4.83;;;4.43;;
20159;SDS011;50187;50.492;12.134;2023-05-07T00:19:44;4.90;;;4.50;;
20159;SDS011;50187;50.492;12.134;2023-05-07T00:22:10;4.70;;;4.30;;
20159;SDS011;50187;50.492;12.134;2023-05-07T00:24:37;4.97;;;4.50;;
20159;SDS011;50187;50.492;12.134;2023-05-07T00:27:03;4.87;;;4.47;;
20159;SDS011;50187;50.492;12.134;2023-05-07T00:29:30;4.77;;;4.37;;
20159;SDS011;50187;50.492;12.134;2023-05-07T00:31:57;5.30;;;4.80;;
20159;SDS011;50187;50.492;12.134;2023-05-07T00:34:23;5.67;;;5.13;;
20159;SDS011;50187;50.492;12.134;2023-05-07T00:36:50;5.47;;;4.60;;
20159;SDS011;50187;50.492;12.134;2023-05-07T00:39:16;5.23;;;4.53;;
20159;SDS011;50187;50.492;12.134;2023-05-07T00:41:43;5.90;;;5.40;;
20159;SDS011;50187;50.492;12.134;2023-05-07T00:44:09;5.17;;;4.77;;
20159;SDS011;50187;50.492;12.134;2023-05-07T00:46:36;5.10;;;4.70;;
20159;SDS011;50187;50.492;12.134;2023-05-07T00:49:03;5.03;;;4.63;;
20159;SDS011;50187;50.492;12.134;2023-05-07T00:51:31;5.37;;;4.87;;
20159;SDS011;50187;50.492;12.134;2023-05-07T00:53:59;5.53;;;5.13;;
20159;SDS011;50187;50.492;12.134;2023-05-07T00:56:27;4.80;;;4.40;;
20159;SDS011;50187;50.492;12.134;2023-05-07T00:58:54;5.13;;;4.73;;
20159;SDS011;50187;50.492;12.134;2023-05-07T01:01:21;4.50;;;4.10;;
20159;SDS011;50187;50.492;12.134;2023-05-07T01:03:48;5.20;;;4.80;;
20159;SDS011;50187;50.492;12.134;2023-05-07T01:06:15;4.27;;;3.90;;
20159;SDS011;50187;50.492;12.134;2023-05-07T01:08:44;5.00;;;4.60;;
20159;SDS011;50187;50.492;12.134;2023-05-07T01:11:11;4.30;;;4.00;;
20159;SDS011;50187;50.492;12.134;2023-05-07T01:13:38;4.73;;;4.33;;
20159;SDS011;50187;50.492;12.134;2023-05-07T01:16:05;5.00;;;4.60;;
20159;SDS011;50187;50.492;12.134;2023-05-07T01:18:32;4.80;;;4.40;;
20159;SDS011;50187;50.492;12.134;2023-05-07T01:21:00;4.27;;;3.97;;
20159;SDS011;50187;50.492;12.134;2023-05-07T01:23:30;4.43;;;4.13;;
20159;SDS011;50187;50.492;12.134;2023-05-07T01:25:56;4.53;;;4.13;;
20159;SDS011;50187;50.492;12.134;2023-05-07T01:28:25;4.70;;;4.30;;
20159;SDS011;50187;50.492;12.134;2023-05-07T01:30:56;5.00;;;4.37;;
20159;SDS011;50187;50.492;12.134;2023-05-07T01:33:28;4.87;;;4.47;;
20159;SDS011;50187;50.492;12.134;2023-05-07T01:35:58;5.23;;;4.73;;
20159;SDS011;50187;50.492;12.134;2023-05-07T01:38:28;4.60;;;4.27;;
20159;SDS011;50187;50.492;12.134;2023-05-07T01:40:55;4.80;;;4.40;;
20159;SDS011;50187;50.492;12.134;2023-05-07T01:43:22;4.97;;;4.57;;
20159;SDS011;50187;50.492;12.134;2023-05-07T01:45:48;5.50;;;5.03;;
20159;SDS011;50187;50.492;12.134;2023-05-07T01:48:16;5.10;;;4.70;;
20159;SDS011;50187;50.492;12.134;2023-05-07T01:50:44;5.07;;;4.67;;
20159;SDS011;50187;50.492;12.134;2023-05-07T01:53:10;5.43;;;5.03;;
20159;SDS011;50187;50.492;12.134;2023-05-07T01:55:37;5.33;;;4.83;;
20159;SDS011;50187;50.492;12.134;2023-05-07T01:58:04;5.30;;;4.90;;
20159;SDS011;50187;50.492;12.134;2023-05-07T02:00:31;5.40;;;5.00;;
20159;SDS011;50187;50.492;12.134;2023-05-07T02:02:58;5.10;;;4.63;;
20159;SDS011;50187;50.492;12.134;2023-05-07T02:05:33;5.60;;;5.10;;
20159;SDS011;50187;50.492;12.134;2023-05-07T02:08:06;5.63;;;5.13;;
20159;SDS011;50187;50.492;12.134;2023-05-07T02:10:32;5.80;;;5.37;;
20159;SDS011;50187;50.492;12.134;2023-05-07T02:12:59;5.83;;;5.33;;
20159;SDS011;50187;50.492;12.134;2023-05-07T02:15:28;5.23;;;4.73;;
20159;SDS011;50187;50.492;12.134;2023-05-07T02:18:02;5.17;;;4.77;;
20159;SDS011;50187;50.492;12.134;2023-05-07T02:20:31;5.20;;;4.80;;
20159;SDS011;50187;50.492;12.134;2023-05-07T02:22:57;6.37;;;4.80;;
20159;SDS011;50187;50.492;12.134;2023-05-07T02:25:26;5.03;;;4.63;;
20159;SDS011;50187;50.492;12.134;2023-05-07T02:27:52;4.90;;;4.50;;
20159;SDS011;50187;50.492;12.134;2023-05-07T02:30:23;4.90;;;4.47;;
20159;SDS011;50187;50.492;12.134;2023-05-07T02:32:53;4.63;;;4.33;;
20159;SDS011;50187;50.492;12.134;2023-05-07T02:35:20;4.97;;;4.57;;
20159;SDS011;50187;50.492;12.134;2023-05-07T02:37:46;4.67;;;4.37;;
20159;SDS011;50187;50.492;12.134;2023-05-07T02:40:13;4.87;;;4.47;;
20159;SDS011;50187;50.492;12.134;2023-05-07T02:42:40;4.63;;;4.27;;
20159;SDS011;50187;50.492;12.134;2023-05-07T02:45:07;5.30;;;4.90;;
20159;SDS011;50187;50.492;12.134;2023-05-07T02:47:34;4.90;;;4.50;;
20159;SDS011;50187;50.492;12.134;2023-05-07T02:50:02;4.87;;;4.43;;
20159;SDS011;50187;50.492;12.134;2023-05-07T02:52:29;5.00;;;4.63;;
20159;SDS011;50187;50.492;12.134;2023-05-07T02:54:56;4.93;;;4.53;;
20159;SDS011;50187;50.492;12.134;2023-05-07T02:57:22;4.70;;;4.33;;
20159;SDS011;50187;50.492;12.134;2023-05-07T02:59:49;5.17;;;4.70;;
20159;SDS011;50187;50.492;12.134;2023-05-07T03:02:18;4.53;;;4.23;;
20159;SDS011;50187;50.492;12.134;2023-05-07T03:04:46;4.33;;;4.03;;
20159;SDS011;50187;50.492;12.134;2023-05-07T03:07:12;4.73;;;4.33;;
20159;SDS011;50187;50.492;12.134;2023-05-07T03:09:39;4.93;;;4.53;;
20159;SDS011;50187;50.492;12.134;2023-05-07T03:12:06;5.07;;;4.70;;
20159;SDS011;50187;50.492;12.134;2023-05-07T03:14:32;4.63;;;4.33;;
20159;SDS011;50187;50.492;12.134;2023-05-07T03:16:59;5.20;;;4.80;;
20159;SDS011;50187;50.492;12.134;2023-05-07T03:19:25;5.50;;;5.10;;
20159;SDS011;50187;50.492;12.134;2023-05-07T03:21:52;4.63;;;4.33;;
20159;SDS011;50187;50.492;12.134;2023-05-07T03:24:19;5.40;;;5.00;;
20159;SDS011;50187;50.492;12.134;2023-05-07T03:26:46;5.57;;;5.07;;
20159;SDS011;50187;50.492;12.134;2023-05-07T03:29:12;5.53;;;5.13;;
20159;SDS011;50187;50.492;12.134;2023-05-07T03:31:38;5.37;;;4.97;;
20159;SDS011;50187;50.492;12.134;2023-05-07T03:34:05;5.30;;;4.90;;
20159;SDS011;50187;50.492;12.134;2023-05-07T03:36:32;5.10;;;4.80;;
20159;SDS011;50187;50.492;12.134;2023-05-07T03:38:58;5.40;;;5.00;;
20159;SDS011;50187;50.492;12.134;2023-05-07T03:41:33;5.10;;;4.57;;
20159;SDS011;50187;50.492;12.134;2023-05-07T03:44:00;5.07;;;4.63;;
20159;SDS011;50187;50.492;12.134;2023-05-07T03:46:26;4.70;;;4.30;;
20159;SDS011;50187;50.492;12.134;2023-05-07T03:48:54;4.70;;;4.40;;
20159;SDS011;50187;50.492;12.134;2023-05-07T03:51:21;4.37;;;4.07;;
20159;SDS011;50187;50.492;12.134;2023-05-07T03:53:47;4.60;;;4.20;;
20159;SDS011;50187;50.492;12.134;2023-05-07T03:56:14;4.60;;;4.30;;
20159;SDS011;50187;50.492;12.134;2023-05-07T03:58:43;4.70;;;4.30;;
20159;SDS011;50187;50.492;12.134;2023-05-07T04:01:10;5.10;;;4.70;;
20159;SDS011;50187;50.492;12.134;2023-05-07T04:03:37;4.20;;;3.90;;
20159;SDS011;50187;50.492;12.134;2023-05-07T04:06:04;4.77;;;4.47;;
20159;SDS011;50187;50.492;12.134;2023-05-07T04:08:33;4.60;;;4.30;;
20159;SDS011;50187;50.492;12.134;2023-05-07T04:11:01;4.40;;;4.00;;
20159;SDS011;50187;50.492;12.134;2023-05-07T04:13:30;4.03;;;3.73;;
20159;SDS011;50187;50.492;12.134;2023-05-07T04:16:00;4.80;;;4.40;;
20159;SDS011;50187;50.492;12.134;2023-05-07T04:18:28;4.20;;;3.90;;
20159;SDS011;50187;50.492;12.134;2023-05-07T04:20:54;5.23;;;4.83;;
20159;SDS011;50187;50.492;12.134;2023-05-07T04:23:21;4.73;;;4.33;;
20159;SDS011;50187;50.492;12.134;2023-05-07T04:25:48;5.10;;;4.63;;
20159;SDS011;50187;50.492;12.134;2023-05-07T04:28:25;4.97;;;4.37;;
20159;SDS011;50187;50.492;12.134;2023-05-07T04:30:52;4.73;;;4.33;;
20159;SDS011;50187;50.492;12.134;2023-05-07T04:33:22;5.10;;;4.70;;
20159;SDS011;50187;50.492;12.134;2023-05-07T04:35:55;5.40;;;5.00;;
20159;SDS011;50187;50.492;12.134;2023-05-07T04:38:24;4.70;;;4.40;;
20159;SDS011;50187;50.492;12.134;2023-05-07T04:40:53;4.43;;;4.13;;
20159;SDS011;50187;50.492;12.134;2023-05-07T04:43:22;4.70;;;4.40;;
20159;SDS011;50187;50.492;12.134;2023-05-07T04:45:50;4.77;;;4.37;;
20159;SDS011;50187;50.492;12.134;2023-05-07T04:48:18;4.90;;;4.50;;
20159;SDS011;50187;50.492;12.134;2023-05-07T04:50:48;4.43;;;4.13;;
20159;SDS011;50187;50.492;12.134;2023-05-07T04:53:16;4.87;;;4.50;;
20159;SDS011;50187;50.492;12.134;2023-05-07T04:55:43;4.33;;;4.03;;
20159;SDS011;50187;50.492;12.134;2023-05-07T04:58:11;4.80;;;4.40;;
20159;SDS011;50187;50.492;12.134;2023-05-07T05:00:40;4.87;;;4.53;;
20159;SDS011;50187;50.492;12.134;2023-05-07T05:03:09;5.07;;;4.67;;
20159;SDS011;50187;50.492;12.134;2023-05-07T05:05:37;4.63;;;4.23;;
20159;SDS011;50187;50.492;12.134;2023-05-07T05:08:04;5.10;;;4.70;;
20159;SDS011;50187;50.492;12.134;2023-05-07T05:10:33;4.90;;;4.50;;
20159;SDS011;50187;50.492;12.134;2023-05-07T05:13:00;4.63;;;4.33;;
20159;SDS011;50187;50.492;12.134;2023-05-07T05:15:27;4.43;;;4.13;;
20159;SDS011;50187;50.492;12.134;2023-05-07T05:17:53;4.77;;;4.37;;
20159;SDS011;50187;50.492;12.134;2023-05-07T05:20:20;4.53;;;4.13;;
20159;SDS011;50187;50.492;12.134;2023-05-07T05:22:47;4.70;;;4.40;;
20159;SDS011;50187;50.492;12.134;2023-05-07T05:25:14;4.80;;;4.50;;
20159;SDS011;50187;50.492;12.134;2023-05-07T05:27:41;4.50;;;4.10;;
20159;SDS011;50187;50.492;12.134;2023-05-07T05:30:08;4.90;;;4.50;;
20159;SDS011;50187;50.492;12.134;2023-05-07T05:32:36;4.50;;;4.10;;
20159;SDS011;50187;50.492;12.134;2023-05-07T05:35:03;4.70;;;4.40;;
20159;SDS011;50187;50.492;12.134;2023-05-07T05:37:30;4.87;;;4.43;;
20159;SDS011;50187;50.492;12.134;2023-05-07T05:39:59;4.40;;;4.10;;
20159;SDS011;50187;50.492;12.134;2023-05-07T05:42:29;4.93;;;4.53;;
20159;SDS011;50187;50.492;12.134;2023-05-07T05:44:55;4.47;;;4.17;;
20159;SDS011;50187;50.492;12.134;2023-05-07T05:47:24;4.67;;;4.27;;
20159;SDS011;50187;50.492;12.134;2023-05-07T05:49:53;4.73;;;4.30;;
20159;SDS011;50187;50.492;12.134;2023-05-07T05:52:20;4.50;;;4.10;;
20159;SDS011;50187;50.492;12.134;2023-05-07T05:54:49;4.30;;;3.90;;
20159;SDS011;50187;50.492;12.134;2023-05-07T05:57:18;4.40;;;4.10;;
20159;SDS011;50187;50.492;12.134;2023-05-07T05:59:45;4.30;;;4.00;;
20159;SDS011;50187;50.492;12.134;2023-05-07T06:02:13;4.60;;;4.30;;
20159;SDS011;50187;50.492;12.134;2023-05-07T06:04:40;4.40;;;4.10;;
20159;SDS011;50187;50.492;12.134;2023-05-07T06:07:07;4.20;;;3.90;;
20159;SDS011;50187;50.492;12.134;2023-05-07T06:09:33;4.57;;;4.27;;
20159;SDS011;50187;50.492;12.134;2023-05-07T06:12:00;4.23;;;3.93;;
20159;SDS011;50187;50.492;12.134;2023-05-07T06:14:29;4.67;;;4.27;;
20159;SDS011;50187;50.492;12.134;2023-05-07T06:16:58;4.30;;;3.90;;
20159;SDS011;50187;50.492;12.134;2023-05-07T06:19:26;4.10;;;3.80;;
20159;SDS011;50187;50.492;12.134;2023-05-07T06:21:57;4.63;;;4.23;;
20159;SDS011;50187;50.492;12.134;2023-05-07T06:24:27;4.73;;;4.40;;
20159;SDS011;50187;50.492;12.134;2023-05-07T06:26:54;4.30;;;4.00;;
20159;SDS011;50187;50.492;12.134;2023-05-07T06:29:20;4.10;;;3.80;;
20159;SDS011;50187;50.492;12.134;2023-05-07T06:31:47;4.47;;;4.03;;
20159;SDS011;50187;50.492;12.134;2023-05-07T06:34:14;4.30;;;4.00;;
20159;SDS011;50187;50.492;12.134;2023-05-07T06:36:41;4.40;;;4.10;;
20159;SDS011;50187;50.492;12.134;2023-05-07T06:39:36;4.17;;;3.83;;
20159;SDS011;50187;50.492;12.134;2023-05-07T06:42:03;3.77;;;3.57;;
20159;SDS011;50187;50.492;12.134;2023-05-07T06:44:32;4.33;;;4.03;;
20159;SDS011;50187;50.492;12.134;2023-05-07T06:47:08;4.03;;;3.80;;
20159;SDS011;50187;50.492;12.134;2023-05-07T06:49:37;4.47;;;4.17;;
20159;SDS011;50187;50.492;12.134;2023-05-07T06:52:04;3.87;;;3.63;;
20159;SDS011;50187;50.492;12.134;2023-05-07T06:54:30;4.33;;;4.03;;
20159;SDS011;50187;50.492;12.134;2023-05-07T06:56:57;3.90;;;3.70;;
20159;SDS011;50187;50.492;12.134;2023-05-07T06:59:26;4.00;;;3.70;;
20159;SDS011;50187;50.492;12.134;2023-05-07T07:01:53;3.73;;;3.40;;
20159;SDS011;50187;50.492;12.134;2023-05-07T07:04:20;4.07;;;3.77;;
20159;SDS011;50187;50.492;12.134;2023-05-07T07:06:57;3.87;;;3.67;;
20159;SDS011;50187;50.492;12.134;2023-05-07T07:09:24;4.47;;;4.17;;
20159;SDS011;50187;50.492;12.134;2023-05-07T07:11:52;4.80;;;4.40;;
20159;SDS011;50187;50.492;12.134;2023-05-07T07:14:18;4.27;;;3.97;;
20159;SDS011;50187;50.492;12.134;2023-05-07T07:16:48;4.03;;;3.73;;
20159;SDS011;50187;50.492;12.134;2023-05-07T07:19:16;3.70;;;3.40;;
20159;SDS011;50187;50.492;12.134;2023-05-07T07:21:46;4.03;;;3.73;;
20159;SDS011;50187;50.492;12.134;2023-05-07T07:24:13;4.03;;;3.67;;
20159;SDS011;50187;50.492;12.134;2023-05-07T07:26:46;4.03;;;3.70;;
20159;SDS011;50187;50.492;12.134;2023-05-07T07:29:13;4.30;;;3.90;;
20159;SDS011;50187;50.492;12.134;2023-05-07T07:31:41;4.53;;;4.17;;
20159;SDS011;50187;50.492;12.134;2023-05-07T07:34:08;3.93;;;3.53;;
20159;SDS011;50187;50.492;12.134;2023-05-07T07:36:35;3.60;;;3.40;;
20159;SDS011;50187;50.492;12.134;2023-05-07T07:39:13;4.10;;;3.80;;
20159;SDS011;50187;50.492;12.134;2023-05-07T07:41:40;3.87;;;3.57;;
20159;SDS011;50187;50.492;12.134;2023-05-07T07:44:06;4.10;;;3.80;;
20159;SDS011;50187;50.492;12.134;2023-05-07T07:46:36;4.20;;;3.90;;
20159;SDS011;50187;50.492;12.134;2023-05-07T07:49:03;3.33;;;3.13;;
20159;SDS011;50187;50.492;12.134;2023-05-07T07:51:31;3.47;;;3.27;;
20159;SDS011;50187;50.492;12.134;2023-05-07T07:54:00;3.90;;;3.60;;
20159;SDS011;50187;50.492;12.134;2023-05-07T07:56:32;3.83;;;3.57;;
20159;SDS011;50187;50.492;12.134;2023-05-07T07:59:02;3.80;;;3.60;;
20159;SDS011;50187;50.492;12.134;2023-05-07T08:01:30;3.43;;;3.23;;
20159;SDS011;50187;50.492;12.134;2023-05-07T08:03:58;3.73;;;3.43;;
20159;SDS011;50187;50.492;12.134;2023-05-07T08:06:28;3.63;;;3.43;;
20159;SDS011;50187;50.492;12.134;2023-05-07T08:08:55;4.10;;;3.90;;
20159;SDS011;50187;50.492;12.134;2023-05-07T08:11:22;4.23;;;3.83;;
20159;SDS011;50187;50.492;12.134;2023-05-07T08:13:49;3.47;;;3.27;;
20159;SDS011;50187;50.492;12.134;2023-05-07T08:16:17;3.90;;;3.57;;
20159;SDS011;50187;50.492;12.134;2023-05-07T08:18:44;3.50;;;3.30;;
20159;SDS011;50187;50.492;12.134;2023-05-07T08:21:10;3.63;;;3.43;;
20159;SDS011;50187;50.492;12.134;2023-05-07T08:23:38;3.60;;;3.40;;
20159;SDS011;50187;50.492;12.134;2023-05-07T08:26:07;3.80;;;3.60;;
20159;SDS011;50187;50.492;12.134;2023-05-07T08:28:35;3.90;;;3.60;;
20159;SDS011;50187;50.492;12.134;2023-05-07T08:31:02;3.83;;;3.53;;
20159;SDS011;50187;50.492;12.134;2023-05-07T08:33:34;3.53;;;3.33;;
20159;SDS011;50187;50.492;12.134;2023-05-07T08:36:00;3.60;;;3.40;;
20159;SDS011;50187;50.492;12.134;2023-05-07T08:38:28;3.87;;;3.57;;
20159;SDS011;50187;50.492;12.134;2023-05-07T08:40:55;3.67;;;3.43;;
20159;SDS011;50187;50.492;12.134;2023-05-07T08:43:26;4.03;;;3.73;;
20159;SDS011;50187;50.492;12.134;2023-05-07T08:45:54;3.30;;;3.10;;
20159;SDS011;50187;50.492;12.134;2023-05-07T08:48:30;3.70;;;3.40;;
20159;SDS011;50187;50.492;12.134;2023-05-07T08:51:12;3.80;;;3.40;;
20159;SDS011;50187;50.492;12.134;2023-05-07T08:53:41;3.77;;;3.47;;
20159;SDS011;50187;50.492;12.134;2023-05-07T08:56:15;3.20;;;3.00;;
20159;SDS011;50187;50.492;12.134;2023-05-07T08:58:43;3.50;;;3.30;;
20159;SDS011;50187;50.492;12.134;2023-05-07T09:01:14;3.93;;;3.63;;
20159;SDS011;50187;50.492;12.134;2023-05-07T09:03:45;4.10;;;3.80;;
20159;SDS011;50187;50.492;12.134;2023-05-07T09:06:14;3.30;;;3.10;;
20159;SDS011;50187;50.492;12.134;2023-05-07T09:08:43;3.57;;;3.27;;
20159;SDS011;50187;50.492;12.134;2023-05-07T09:11:16;3.80;;;3.60;;
20159;SDS011;50187;50.492;12.134;2023-05-07T09:13:45;3.40;;;3.20;;
20159;SDS011;50187;50.492;12.134;2023-05-07T09:16:12;4.13;;;3.83;;
20159;SDS011;50187;50.492;12.134;2023-05-07T09:18:43;3.50;;;3.30;;
20159;SDS011;50187;50.492;12.134;2023-05-07T09:21:16;3.80;;;3.50;;
20159;SDS011;50187;50.492;12.134;2023-05-07T09:23:45;4.10;;;3.80;;
20159;SDS011;50187;50.492;12.134;2023-05-07T09:26:14;3.00;;;2.80;;
20159;SDS011;50187;50.492;12.134;2023-05-07T09:28:41;3.63;;;3.33;;
20159;SDS011;50187;50.492;12.134;2023-05-07T09:31:13;3.87;;;3.57;;
20159;SDS011;50187;50.492;12.134;2023-05-07T09:33:40;3.47;;;3.27;;
20159;SDS011;50187;50.492;12.134;2023-05-07T09:36:09;4.17;;;3.77;;
20159;SDS011;50187;50.492;12.134;2023-05-07T09:38:39;3.97;;;3.70;;
20159;SDS011;50187;50.492;12.134;2023-05-07T09:43:39;3.83;;;3.53;;
20159;SDS011;50187;50.492;12.134;2023-05-07T09:46:11;3.67;;;3.37;;
20159;SDS011;50187;50.492;12.134;2023-05-07T09:48:44;3.70;;;3.37;;
20159;SDS011;50187;50.492;12.134;2023-05-07T09:51:22;4.20;;;3.90;;
20159;SDS011;50187;50.492;12.134;2023-05-07T09:53:50;3.37;;;3.17;;
20159;SDS011;50187;50.492;12.134;2023-05-07T09:56:20;4.03;;;3.73;;
20159;SDS011;50187;50.492;12.134;2023-05-07T09:58:48;3.37;;;3.13;;
20159;SDS011;50187;50.492;12.134;2023-05-07T10:01:15;3.90;;;3.60;;
20159;SDS011;50187;50.492;12.134;2023-05-07T10:03:44;3.63;;;3.43;;
20159;SDS011;50187;50.492;12.134;2023-05-07T10:06:13;3.57;;;3.23;;
20159;SDS011;50187;50.492;12.134;2023-05-07T10:08:40;3.50;;;3.30;;
20159;SDS011;50187;50.492;12.134;2023-05-07T10:11:09;3.50;;;3.30;;
20159;SDS011;50187;50.492;12.134;2023-05-07T10:13:36;3.50;;;3.30;;
20159;SDS011;50187;50.492;12.134;2023-05-07T10:16:07;3.37;;;3.17;;
20159;SDS011;50187;50.492;12.134;2023-05-07T10:18:43;3.20;;;3.00;;
20159;SDS011;50187;50.492;12.134;2023-05-07T10:21:19;3.30;;;3.10;;
20159;SDS011;50187;50.492;12.134;2023-05-07T10:23:50;3.70;;;3.40;;
20159;SDS011;50187;50.492;12.134;2023-05-07T10:26:20;3.80;;;3.53;;
20159;SDS011;50187;50.492;12.134;2023-05-07T10:28:50;3.50;;;3.30;;
20159;SDS011;50187;50.492;12.134;2023-05-07T10:31:47;3.40;;;3.20;;
20159;SDS011;50187;50.492;12.134;2023-05-07T10:34:37;3.63;;;3.43;;
20159;SDS011;50187;50.492;12.134;2023-05-07T10:37:08;3.73;;;3.40;;
20159;SDS011;50187;50.492;12.134;2023-05-07T10:39:37;3.73;;;3.43;;
20159;SDS011;50187;50.492;12.134;2023-05-07T10:42:10;3.27;;;3.07;;
20159;SDS011;50187;50.492;12.134;2023-05-07T10:44:42;3.40;;;3.20;;
20159;SDS011;50187;50.492;12.134;2023-05-07T10:47:18;3.40;;;3.20;;
20159;SDS011;50187;50.492;12.134;2023-05-07T10:52:22;3.70;;;3.40;;
20159;SDS011;50187;50.492;12.134;2023-05-07T10:57:55;3.20;;;3.00;;
20159;SDS011;50187;50.492;12.134;2023-05-07T11:05:38;3.20;;;3.00;;
20159;SDS011;50187;50.492;12.134;2023-05-07T11:08:17;3.10;;;2.90;;
20159;SDS011;50187;50.492;12.134;2023-05-07T11:10:54;3.67;;;3.37;;
20159;SDS011;50187;50.492;12.134;2023-05-07T11:13:48;3.33;;;3.13;;
20159;SDS011;50187;50.492;12.134;2023-05-07T11:16:41;3.10;;;2.90;;
20159;SDS011;50187;50.492;12.134;2023-05-07T11:19:47;3.97;;;3.67;;
20159;SDS011;50187;50.492;12.134;2023-05-07T11:25:08;3.40;;;3.20;;
20159;SDS011;50187;50.492;12.134;2023-05-07T11:27:35;3.63;;;3.43;;
20159;SDS011;50187;50.492;12.134;2023-05-07T11:30:02;3.23;;;3.03;;
20159;SDS011;50187;50.492;12.134;2023-05-07T11:32:30;2.90;;;2.80;;
20159;SDS011;50187;50.492;12.134;2023-05-07T11:34:59;3.30;;;3.10;;
20159;SDS011;50187;50.492;12.134;2023-05-07T11:37:27;3.00;;;2.80;;
20159;SDS011;50187;50.492;12.134;2023-05-07T11:40:03;3.27;;;3.07;;
20159;SDS011;50187;50.492;12.134;2023-05-07T11:42:35;3.43;;;3.23;;
20159;SDS011;50187;50.492;12.134;2023-05-07T11:45:03;3.60;;;3.40;;
20159;SDS011;50187;50.492;12.134;2023-05-07T11:47:32;3.27;;;3.07;;
20159;SDS011;50187;50.492;12.134;2023-05-07T11:50:04;3.27;;;3.07;;
20159;SDS011;50187;50.492;12.134;2023-05-07T11:52:33;3.57;;;3.37;;
20159;SDS011;50187;50.492;12.134;2023-05-07T11:55:01;3.37;;;3.17;;
20159;SDS011;50187;50.492;12.134;2023-05-07T11:57:29;3.27;;;3.07;;
20159;SDS011;50187;50.492;12.134;2023-05-07T11:59:56;3.43;;;3.23;;
20159;SDS011;50187;50.492;12.134;2023-05-07T12:02:24;3.03;;;2.83;;
20159;SDS011;50187;50.492;12.134;2023-05-07T12:04:52;3.53;;;3.33;;
20159;SDS011;50187;50.492;12.134;2023-05-07T12:07:19;3.73;;;3.50;;
20159;SDS011;50187;50.492;12.134;2023-05-07T12:09:46;3.40;;;3.20;;
20159;SDS011;50187;50.492;12.134;2023-05-07T12:12:14;3.47;;;3.27;;
20159;SDS011;50187;50.492;12.134;2023-05-07T12:14:45;3.50;;;3.30;;
20159;SDS011;50187;50.492;12.134;2023-05-07T12:17:12;3.30;;;3.10;;
20159;SDS011;50187;50.492;12.134;2023-05-07T12:19:41;3.13;;;2.93;;
20159;SDS011;50187;50.492;12.134;2023-05-07T12:22:09;2.77;;;2.63;;
20159;SDS011;50187;50.492;12.134;2023-05-07T12:24:49;2.97;;;2.77;;
20159;SDS011;50187;50.492;12.134;2023-05-07T12:27:22;2.83;;;2.63;;
20159;SDS011;50187;50.492;12.134;2023-05-07T12:29:50;3.50;;;3.30;;
20159;SDS011;50187;50.492;12.134;2023-05-07T12:32:17;3.13;;;2.93;;
20159;SDS011;50187;50.492;12.134;2023-05-07T12:34:46;3.37;;;3.17;;
20159;SDS011;50187;50.492;12.134;2023-05-07T12:37:22;3.30;;;3.10;;
20159;SDS011;50187;50.492;12.134;2023-05-07T12:44:11;2.50;;;2.40;;
20159;SDS011;50187;50.492;12.134;2023-05-07T12:46:38;3.20;;;3.00;;
20159;SDS011;50187;50.492;12.134;2023-05-07T12:49:05;3.37;;;3.17;;
20159;SDS011;50187;50.492;12.134;2023-05-07T12:51:32;2.90;;;2.70;;
20159;SDS011;50187;50.492;12.134;2023-05-07T12:54:01;3.00;;;2.67;;
20159;SDS011;50187;50.492;12.134;2023-05-07T12:56:30;3.87;;;3.40;;
20159;SDS011;50187;50.492;12.134;2023-05-07T12:58:57;3.47;;;3.17;;
20159;SDS011;50187;50.492;12.134;2023-05-07T13:01:30;3.37;;;3.17;;
20159;SDS011;50187;50.492;12.134;2023-05-07T13:04:00;3.40;;;3.17;;
20159;SDS011;50187;50.492;12.134;2023-05-07T13:06:29;3.50;;;3.30;;
20159;SDS011;50187;50.492;12.134;2023-05-07T13:08:57;3.10;;;2.90;;
20159;SDS011;50187;50.492;12.134;2023-05-07T13:11:23;2.97;;;2.77;;
20159;SDS011;50187;50.492;12.134;2023-05-07T13:13:50;3.10;;;2.90;;
20159;SDS011;50187;50.492;12.134;2023-05-07T13:16:16;2.97;;;2.83;;
20159;SDS011;50187;50.492;12.134;2023-05-07T13:18:43;3.30;;;3.10;;
20159;SDS011;50187;50.492;12.134;2023-05-07T13:21:12;3.10;;;2.90;;
20159;SDS011;50187;50.492;12.134;2023-05-07T13:23:39;3.57;;;3.37;;
20159;SDS011;50187;50.492;12.134;2023-05-07T13:26:06;3.40;;;3.13;;
20159;SDS011;50187;50.492;12.134;2023-05-07T13:28:51;3.17;;;2.97;;
20159;SDS011;50187;50.492;12.134;2023-05-07T13:31:21;3.20;;;3.00;;
20159;SDS011;50187;50.492;12.134;2023-05-07T13:33:47;3.20;;;3.00;;
20159;SDS011;50187;50.492;12.134;2023-05-07T13:36:14;3.20;;;3.00;;
20159;SDS011;50187;50.492;12.134;2023-05-07T13:38:40;2.90;;;2.70;;
20159;SDS011;50187;50.492;12.134;2023-05-07T13:41:07;3.20;;;3.00;;
20159;SDS011;50187;50.492;12.134;2023-05-07T13:43:33;3.67;;;3.37;;
20159;SDS011;50187;50.492;12.134;2023-05-07T13:46:00;3.30;;;3.07;;
20159;SDS011;50187;50.492;12.134;2023-05-07T13:48:27;3.83;;;2.90;;
20159;SDS011;50187;50.492;12.134;2023-05-07T13:50:54;3.27;;;3.07;;
20159;SDS011;50187;50.492;12.134;2023-05-07T13:53:21;3.07;;;2.80;;
20159;SDS011;50187;50.492;12.134;2023-05-07T13:55:47;3.47;;;3.27;;
20159;SDS011;50187;50.492;12.134;2023-05-07T13:58:14;2.83;;;2.63;;
20159;SDS011;50187;50.492;12.134;2023-05-07T14:00:40;3.23;;;3.03;;
20159;SDS011;50187;50.492;12.134;2023-05-07T14:03:07;3.03;;;2.83;;
20159;SDS011;50187;50.492;12.134;2023-05-07T14:05:33;3.20;;;2.90;;
20159;SDS011;50187;50.492;12.134;2023-05-07T14:08:01;2.90;;;2.60;;
20159;SDS011;50187;50.492;12.134;2023-05-07T14:10:27;2.40;;;2.30;;
20159;SDS011;50187;50.492;12.134;2023-05-07T14:12:54;2.80;;;2.60;;
20159;SDS011;50187;50.492;12.134;2023-05-07T14:15:21;2.87;;;2.70;;
20159;SDS011;50187;50.492;12.134;2023-05-07T14:17:47;3.90;;;2.80;;
20159;SDS011;50187;50.492;12.134;2023-05-07T14:20:14;2.87;;;2.67;;
20159;SDS011;50187;50.492;12.134;2023-05-07T14:22:40;3.03;;;2.83;;
20159;SDS011;50187;50.492;12.134;2023-05-07T14:25:07;3.20;;;3.00;;
20159;SDS011;50187;50.492;12.134;2023-05-07T14:27:35;3.13;;;2.93;;
20159;SDS011;50187;50.492;12.134;2023-05-07T14:30:02;3.40;;;2.80;;
20159;SDS011;50187;50.492;12.134;2023-05-07T14:32:28;2.80;;;2.60;;
20159;SDS011;50187;50.492;12.134;2023-05-07T14:34:55;3.00;;;2.80;;
20159;SDS011;50187;50.492;12.134;2023-05-07T14:37:22;3.00;;;2.80;;
20159;SDS011;50187;50.492;12.134;2023-05-07T14:39:48;2.73;;;2.53;;
20159;SDS011;50187;50.492;12.134;2023-05-07T14:42:16;2.83;;;2.63;;
20159;SDS011;50187;50.492;12.134;2023-05-07T14:44:43;2.80;;;2.60;;
20159;SDS011;50187;50.492;12.134;2023-05-07T14:47:10;2.93;;;2.73;;
20159;SDS011;50187;50.492;12.134;2023-05-07T14:49:37;3.10;;;2.90;;
20159;SDS011;50187;50.492;12.134;2023-05-07T14:52:04;2.60;;;2.50;;
20159;SDS011;50187;50.492;12.134;2023-05-07T14:54:35;2.30;;;2.20;;
20159;SDS011;50187;50.492;12.134;2023-05-07T14:57:04;2.50;;;2.40;;
20159;SDS011;50187;50.492;12.134;2023-05-07T14:59:31;2.70;;;2.50;;
20159;SDS011;50187;50.492;12.134;2023-05-07T15:01:58;3.00;;;2.80;;